Řízení letového provozu České republiky  
Aktualizace dat:  28.06.2016 03:40:08 UTC English version
   METEO Zobrazení stránky:  28.06.2016 03:41:50 UTC  
vysvětlivky
METAR EDDB 280320Z 20003KT 150V230 CAVOK 16/11 Q1016 NOSIG=
METAR EDDC 280320Z 24008KT 9999 -RA BKN016 BKN030 15/13 Q1018=
METAR EDDE 280320Z 22003KT 9999 BKN010 BKN060 15/14 Q1019=
METAR EDDF 280320Z VRB02KT 9999 FEW002 SCT042 BKN075 15/14 Q1019 NOSIG=
METAR EDDM 280320Z 11003KT 9999 FEW026 SCT060 BKN090 15/13 Q1020 NOSIG=
METAR EDDN 280320Z 00000KT 9999 FEW040 BKN060 15/12 Q1019=
METAR EDDP 280320Z 23008KT 9999 BKN045 BKN080 16/14 Q1018 NOSIG=
METAR EDDT 280320Z 26005KT 9999 FEW038 BKN060 17/13 Q1016 NOSIG=
METAR EDQM 271750Z 25012KT CAVOK 16/07 Q1020=
METAR EPBY 280330Z VRB01KT CAVOK 16/14 Q1016 =
METAR EPGD 280330Z 23001KT CAVOK 15/14 Q1016 =
METAR EPKK 280330Z 22005KT 9999 FEW012 BKN032 15/14 Q1017 =
METAR EPKT 280330Z VRB02KT 9999 FEW045 14/13 Q1017 =
METAR EPLL 280330Z 30003KT CAVOK 15/13 Q1017 =
METAR EPPO 280330Z VRB01KT 6000 MIFG NSC 15/13 Q1016 =
METAR EPRZ 280330Z 31006KT 280V340 9999 -SHRA FEW007 BKN035CB 16/15 Q1015 =
METAR EPWA 280330Z VRB01KT CAVOK 17/14 Q1016 NOSIG=
METAR EPWR 280330Z VRB02KT 9999 MIFG NSC 13/12 Q1018 =
METAR LHBP 280330Z 32006KT 9999 -RA FEW010 BKN032 17/15 Q1014 NOSIG=
METAR LHSM NIL
METAR LKCV 280300Z VRB01KT CAVOK 12/10 Q1019 NOSIG=
METAR LKKB 280300Z 21003KT CAVOK 11/09 Q1019 =
METAR LKKU NIL
METAR LKKV 280300Z VRB02KT 9999 SCT017 BKN033 14/11 Q1020 RMK REG QNH 1016=
METAR LKLN 280300Z AUTO 28001KT CAVOK 14/11 Q1020=
METAR LKMT 280330Z 22003KT 9999 BKN038 15/13 Q1018 NOSIG RMK REG QNH 1016=
METAR LKNA 280300Z 31007KT CAVOK 11/09 Q1019=
SPECI LKPD 222059Z VRB01KT 5000 1200E R27/1000N BR NSC 12/11 Q1019 =
METAR LKPR 280330Z 23006KT CAVOK 11/10 Q1019 NOSIG RMK REG QNH 1016=
METAR LKTB 280330Z VRB02KT CAVOK 13/11 Q1018 NOSIG RMK REG QNH 1016=
METAR LKVO NIL
METAR LOWI 280320Z AUTO 27003KT 9999 BKN080 13/11 Q1022=
METAR LOWL 280320Z 25003KT 9999 FEW060 BKN090 15/13 Q1020 NOSIG=
METAR LOWS 280320Z AUTO 15005KT 9999 FEW050 SCT060 BKN090 15/12 Q1021=
METAR LOWW 280320Z 30009KT CAVOK 15/11 Q1018 NOSIG=
METAR LZIB 280330Z 29010KT CAVOK 15/12 Q1017=
METAR LZKZ 280330Z 01011KT 9999 FEW020 BKN095 18/13 Q1014=
METAR LZPP 280330Z AUTO 03003KT 9999 NCD 15/11 Q1017=
METAR LZSL 280330Z VRB02KT 9999 FEW060 BKN090 17/13 Q1015=
METAR LZTT 280330Z 25006KT 9999 FEW008 BKN020 14/11 Q1016=
METAR LZZI 280330Z VRB01KT 9999 -RA FEW026 BKN037 14/13 Q1017=